Time;durP1;ratioP1;P1;durP2;ratioP2;P2;SDS_P1;SDS_P2;PMS_P1;PMS_P2;Temp;Humidity;BMP_temperature;BMP_pressure;BME280_temperature;BME280_humidity;BME280_pressure;Samples;Min_cycle;Max_cycle;Signal;HPM_P1;HPM_P2
2022/08/20 00:01:44;;;;;;;9.45;7.53;;;;;;;;;;5056215;28;20013;-62
2022/08/20 00:04:10;;;;;;;8.32;7.10;;;;;;;;;;5056260;28;20025;-61
2022/08/20 00:06:35;;;;;;;9.48;7.05;;;;;;;;;;5056192;28;20363;-63
2022/08/20 00:09:02;;;;;;;8.27;6.60;;;;;;;;;;5055989;28;20036;-63
2022/08/20 00:11:27;;;;;;;10.98;8.10;;;;;;;;;;5055578;28;20032;-62
2022/08/20 00:13:58;;;;;;;11.35;8.32;;;;;;;;;;5055293;28;20468;-61
2022/08/20 00:16:24;;;;;;;10.35;7.80;;;;;;;;;;5055746;28;20017;-62
2022/08/20 00:18:50;;;;;;;9.93;7.05;;;;;;;;;;5055640;28;20024;-62
2022/08/20 00:21:16;;;;;;;10.13;8.10;;;;;;;;;;5055937;28;20082;-62
2022/08/20 00:23:43;;;;;;;11.77;7.97;;;;;;;;;;5056101;28;20056;-62
2022/08/20 00:26:09;;;;;;;10.65;7.90;;;;;;;;;;5055538;28;20024;-63
2022/08/20 00:28:34;;;;;;;10.07;7.97;;;;;;;;;;5055275;28;20048;-67
2022/08/20 00:31:01;;;;;;;11.23;7.75;;;;;;;;;;5055477;28;20021;-67
2022/08/20 00:33:28;;;;;;;10.25;7.45;;;;;;;;;;5055140;28;20382;-66
2022/08/20 00:35:55;;;;;;;10.50;7.38;;;;;;;;;;5055314;28;20447;-66
2022/08/20 00:38:21;;;;;;;9.77;7.45;;;;;;;;;;5054926;28;20029;-67
2022/08/20 00:40:51;;;;;;;8.88;6.72;;;;;;;;;;5055461;28;20127;-66
2022/08/20 00:43:27;;;;;;;11.07;6.88;;;;;;;;;;5055391;28;20032;-66
2022/08/20 00:45:56;;;;;;;11.63;7.38;;;;;;;;;;5055416;28;20025;-66
2022/08/20 00:48:25;;;;;;;7.72;6.78;;;;;;;;;;5055474;28;20015;-66
2022/08/20 00:51:00;;;;;;;7.67;6.63;;;;;;;;;;5055231;28;20031;-66
2022/08/20 00:53:28;;;;;;;9.98;6.75;;;;;;;;;;5054985;28;20478;-66
2022/08/20 00:55:54;;;;;;;10.00;6.75;;;;;;;;;;5054768;28;20053;-62
2022/08/20 00:58:19;;;;;;;7.35;6.65;;;;;;;;;;5054745;28;20053;-62
2022/08/20 01:00:46;;;;;;;8.82;7.65;;;;;;;;;;5054980;28;20132;-62
2022/08/20 01:03:13;;;;;;;9.27;8.10;;;;;;;;;;5054869;28;20021;-62
2022/08/20 01:05:41;;;;;;;9.13;7.90;;;;;;;;;;5054825;28;20104;-62
2022/08/20 01:08:06;;;;;;;13.13;8.52;;;;;;;;;;5054414;28;20028;-62
2022/08/20 01:10:33;;;;;;;14.95;8.82;;;;;;;;;;5054991;28;20017;-62
2022/08/20 01:12:59;;;;;;;12.80;9.10;;;;;;;;;;5054704;28;20486;-62
2022/08/20 01:15:27;;;;;;;8.18;7.38;;;;;;;;;;5054470;28;20029;-63
2022/08/20 01:17:56;;;;;;;9.52;6.45;;;;;;;;;;5054684;28;20115;-63
2022/08/20 01:20:23;;;;;;;8.52;7.72;;;;;;;;;;5054555;28;20017;-62
2022/08/20 01:25:59;;;;;;;13.75;8.57;;;;;;;;;;5054748;28;20071;-62
2022/08/20 01:28:51;;;;;;;9.88;7.50;;;;;;;;;;5054313;28;20025;-61
2022/08/20 01:31:21;;;;;;;8.30;6.78;;;;;;;;;;5051148;28;20036;-61
2022/08/20 01:33:47;;;;;;;9.10;7.18;;;;;;;;;;5054234;28;20414;-63
2022/08/20 01:36:13;;;;;;;8.27;7.47;;;;;;;;;;5053975;28;20029;-63
2022/08/20 01:38:39;;;;;;;9.80;8.23;;;;;;;;;;5054131;28;20024;-63
2022/08/20 01:41:23;;;;;;;8.82;7.07;;;;;;;;;;5054124;28;20392;-62
2022/08/20 01:43:49;;;;;;;7.40;6.22;;;;;;;;;;5054174;28;20064;-62
2022/08/20 01:46:15;;;;;;;7.63;6.90;;;;;;;;;;5054256;28;20024;-62
2022/08/20 01:48:41;;;;;;;9.27;6.88;;;;;;;;;;5035893;28;20123;-62
2022/08/20 01:51:08;;;;;;;7.47;6.60;;;;;;;;;;5053893;28;20104;-62
2022/08/20 01:53:36;;;;;;;11.20;6.28;;;;;;;;;;5053914;28;20469;-62
2022/08/20 01:56:03;;;;;;;8.23;6.70;;;;;;;;;;5053531;28;20021;-62
2022/08/20 01:58:30;;;;;;;7.78;7.07;;;;;;;;;;5053747;28;20082;-62
2022/08/20 02:00:56;;;;;;;11.85;6.55;;;;;;;;;;5054043;28;20021;-61
2022/08/20 02:03:22;;;;;;;9.02;6.38;;;;;;;;;;5035974;28;20032;-62
2022/08/20 02:05:47;;;;;;;7.32;6.32;;;;;;;;;;5053978;28;20440;-62
2022/08/20 02:08:13;;;;;;;6.15;5.50;;;;;;;;;;5053850;28;20021;-62
2022/08/20 02:10:39;;;;;;;10.57;7.10;;;;;;;;;;5054328;28;20021;-62
2022/08/20 02:13:08;;;;;;;8.35;7.25;;;;;;;;;;5053415;28;20463;-67
2022/08/20 02:15:34;;;;;;;7.90;6.35;;;;;;;;;;5053522;28;20017;-67
2022/08/20 02:18:02;;;;;;;10.23;6.63;;;;;;;;;;5053964;28;20029;-67
2022/08/20 02:20:29;;;;;;;10.13;6.22;;;;;;;;;;5036123;28;20047;-67
2022/08/20 02:22:56;;;;;;;7.63;6.82;;;;;;;;;;5054166;28;20104;-67
2022/08/20 02:25:22;;;;;;;8.38;7.30;;;;;;;;;;5053826;28;20017;-68
2022/08/20 02:27:50;;;;;;;11.23;8.68;;;;;;;;;;5053422;28;20029;-67
2022/08/20 02:30:19;;;;;;;10.70;7.18;;;;;;;;;;5053666;28;20444;-62
2022/08/20 02:32:45;;;;;;;9.23;7.38;;;;;;;;;;5053748;28;20115;-62
2022/08/20 02:35:12;;;;;;;11.93;8.57;;;;;;;;;;5053175;28;20064;-62
2022/08/20 02:37:38;;;;;;;10.38;8.30;;;;;;;;;;5053503;28;20025;-67
2022/08/20 02:40:06;;;;;;;8.98;8.07;;;;;;;;;;5054013;28;20020;-67
2022/08/20 02:42:31;;;;;;;11.60;6.72;;;;;;;;;;5053909;28;20103;-67
2022/08/20 02:44:57;;;;;;;7.22;6.53;;;;;;;;;;5053235;28;20455;-67
2022/08/20 02:47:22;;;;;;;9.68;7.65;;;;;;;;;;5053800;28;20452;-66
2022/08/20 02:49:48;;;;;;;10.10;8.13;;;;;;;;;;5053211;28;20029;-66
2022/08/20 02:52:14;;;;;;;9.05;7.25;;;;;;;;;;5052963;28;20053;-68
2022/08/20 02:54:39;;;;;;;10.18;7.22;;;;;;;;;;5052976;28;20521;-66
2022/08/20 02:57:04;;;;;;;8.85;6.57;;;;;;;;;;5053267;28;20021;-66
2022/08/20 02:59:30;;;;;;;8.23;5.97;;;;;;;;;;5053852;28;20367;-67
2022/08/20 03:01:55;;;;;;;8.07;6.60;;;;;;;;;;5053091;28;20025;-66
2022/08/20 03:04:20;;;;;;;6.35;5.80;;;;;;;;;;5053590;28;20089;-66
2022/08/20 03:06:46;;;;;;;7.40;6.22;;;;;;;;;;5053393;28;20468;-66
2022/08/20 03:09:11;;;;;;;8.52;6.65;;;;;;;;;;5056847;28;20028;-67
2022/08/20 03:11:38;;;;;;;6.68;5.80;;;;;;;;;;5057398;28;20078;-67
2022/08/20 03:14:05;;;;;;;8.57;5.95;;;;;;;;;;5056870;28;20020;-66
2022/08/20 03:16:30;;;;;;;6.32;5.28;;;;;;;;;;5056718;28;20033;-66
2022/08/20 03:18:56;;;;;;;6.88;5.38;;;;;;;;;;5056831;28;20027;-66
2022/08/20 03:21:21;;;;;;;5.85;5.25;;;;;;;;;;5057091;28;20029;-66
2022/08/20 03:23:47;;;;;;;8.05;5.72;;;;;;;;;;5056680;28;20475;-66
2022/08/20 03:26:12;;;;;;;5.80;5.22;;;;;;;;;;5056984;28;20087;-66
2022/08/20 03:28:38;;;;;;;7.22;5.72;;;;;;;;;;5038643;28;20021;-66
2022/08/20 03:31:04;;;;;;;7.07;5.55;;;;;;;;;;5056357;28;20379;-67
2022/08/20 03:33:30;;;;;;;7.45;5.85;;;;;;;;;;5056586;28;20025;-67
2022/08/20 03:35:56;;;;;;;8.70;5.78;;;;;;;;;;5038347;28;20036;-67
2022/08/20 03:38:22;;;;;;;6.30;5.70;;;;;;;;;;5057012;28;20017;-67
2022/08/20 03:40:48;;;;;;;7.00;5.85;;;;;;;;;;5056419;28;20033;-66
2022/08/20 03:43:14;;;;;;;7.03;6.32;;;;;;;;;;5056604;28;20028;-66
2022/08/20 03:45:40;;;;;;;7.50;6.80;;;;;;;;;;5056447;28;20033;-66
2022/08/20 03:48:06;;;;;;;11.63;8.38;;;;;;;;;;5056821;28;20100;-66
2022/08/20 03:50:32;;;;;;;11.60;7.30;;;;;;;;;;5056237;28;20028;-66
2022/08/20 03:52:58;;;;;;;8.40;6.43;;;;;;;;;;5055885;28;20494;-66
2022/08/20 03:55:24;;;;;;;7.60;6.80;;;;;;;;;;5055783;28;20124;-66
2022/08/20 03:57:52;;;;;;;7.93;6.55;;;;;;;;;;5056291;28;20045;-66
2022/08/20 04:00:23;;;;;;;8.23;6.43;;;;;;;;;;5055766;28;20028;-67
2022/08/20 04:02:48;;;;;;;6.38;5.72;;;;;;;;;;5056114;28;20028;-67
2022/08/20 04:05:14;;;;;;;7.40;5.90;;;;;;;;;;5055920;28;20104;-66
2022/08/20 04:07:39;;;;;;;9.70;6.38;;;;;;;;;;5055839;28;20033;-66
2022/08/20 04:10:08;;;;;;;8.57;6.57;;;;;;;;;;5056256;28;20095;-66
2022/08/20 04:12:33;;;;;;;6.93;5.45;;;;;;;;;;5056314;28;20426;-66
2022/08/20 04:14:59;;;;;;;8.93;5.10;;;;;;;;;;5055756;28;20052;-66
2022/08/20 04:17:25;;;;;;;8.32;5.55;;;;;;;;;;5055537;28;20391;-66
2022/08/20 04:19:50;;;;;;;6.28;5.65;;;;;;;;;;5055404;28;20021;-67
2022/08/20 04:22:16;;;;;;;6.65;5.72;;;;;;;;;;5055442;28;20021;-67
2022/08/20 04:24:42;;;;;;;6.05;5.20;;;;;;;;;;5055209;28;20020;-67
2022/08/20 04:27:07;;;;;;;5.95;5.45;;;;;;;;;;5055147;28;20033;-67
2022/08/20 04:29:33;;;;;;;6.32;5.72;;;;;;;;;;5055118;28;20017;-67
2022/08/20 04:32:00;;;;;;;6.72;5.82;;;;;;;;;;5054931;28;20052;-67
2022/08/20 04:34:25;;;;;;;6.03;5.47;;;;;;;;;;5055081;28;20021;-67
2022/08/20 04:36:50;;;;;;;5.90;5.35;;;;;;;;;;5054946;28;20036;-67
2022/08/20 04:39:16;;;;;;;7.18;5.35;;;;;;;;;;5054200;28;20049;-67
2022/08/20 04:41:42;;;;;;;6.05;4.97;;;;;;;;;;5053987;28;20028;-67
2022/08/20 04:44:08;;;;;;;8.10;5.00;;;;;;;;;;5053860;28;20027;-67
2022/08/20 04:46:33;;;;;;;7.03;5.38;;;;;;;;;;5054136;28;20410;-67
2022/08/20 04:49:02;;;;;;;6.22;5.07;;;;;;;;;;5053776;28;20020;-67
2022/08/20 04:51:28;;;;;;;7.13;5.18;;;;;;;;;;5035720;28;20037;-67
2022/08/20 04:53:55;;;;;;;6.78;5.57;;;;;;;;;;5053578;28;20422;-67
2022/08/20 04:56:24;;;;;;;7.22;5.85;;;;;;;;;;5053695;28;20038;-67
2022/08/20 04:58:51;;;;;;;6.60;5.80;;;;;;;;;;5053667;28;20033;-67
2022/08/20 05:01:16;;;;;;;6.93;5.75;;;;;;;;;;5053671;28;20017;-67
2022/08/20 05:03:42;;;;;;;10.25;5.85;;;;;;;;;;5054069;28;20128;-67
2022/08/20 05:06:08;;;;;;;10.27;5.88;;;;;;;;;;5054421;28;20535;-67
2022/08/20 05:08:34;;;;;;;5.97;5.18;;;;;;;;;;5054231;28;20029;-66
2022/08/20 05:11:00;;;;;;;7.18;5.47;;;;;;;;;;5054277;28;20017;-67
2022/08/20 05:13:26;;;;;;;6.03;4.35;;;;;;;;;;5054037;28;20029;-66
2022/08/20 05:15:51;;;;;;;9.45;4.55;;;;;;;;;;5054051;28;20063;-67
2022/08/20 05:18:18;;;;;;;6.53;4.75;;;;;;;;;;5054667;28;20367;-67
2022/08/20 05:20:44;;;;;;;7.47;5.07;;;;;;;;;;5054546;28;20043;-66
2022/08/20 05:23:10;;;;;;;8.20;5.32;;;;;;;;;;5054531;28;20021;-66
2022/08/20 05:25:37;;;;;;;7.53;6.80;;;;;;;;;;5054075;28;20040;-66
2022/08/20 05:28:12;;;;;;;9.30;6.57;;;;;;;;;;5052328;28;20112;-66
2022/08/20 05:30:42;;;;;;;10.00;6.32;;;;;;;;;;5052656;28;20032;-67
2022/08/20 05:33:08;;;;;;;8.63;6.75;;;;;;;;;;5054254;28;20021;-67
2022/08/20 05:35:37;;;;;;;11.27;6.28;;;;;;;;;;5052465;28;20454;-68
2022/08/20 05:38:03;;;;;;;9.35;7.13;;;;;;;;;;5052052;28;20037;-67
2022/08/20 05:40:29;;;;;;;10.60;7.20;;;;;;;;;;5052225;28;20028;-66
2022/08/20 05:42:54;;;;;;;9.40;6.90;;;;;;;;;;5052347;28;20028;-66
2022/08/20 05:45:20;;;;;;;8.38;6.60;;;;;;;;;;5051827;28;20033;-66
2022/08/20 05:47:47;;;;;;;10.45;6.63;;;;;;;;;;5052135;28;20096;-67
2022/08/20 05:50:14;;;;;;;10.98;6.93;;;;;;;;;;5051802;28;20472;-66
2022/08/20 05:52:39;;;;;;;9.52;6.78;;;;;;;;;;5052030;28;20491;-67
2022/08/20 05:55:05;;;;;;;8.27;7.13;;;;;;;;;;5051511;28;20110;-67
2022/08/20 05:57:31;;;;;;;10.38;6.82;;;;;;;;;;5051575;28;20024;-67
2022/08/20 05:59:58;;;;;;;9.07;7.38;;;;;;;;;;5053679;28;20382;-67
2022/08/20 06:05:07;;;;;;;10.25;7.53;;;;;;;;;;5054165;28;20123;-66
2022/08/20 06:07:32;;;;;;;8.85;7.00;;;;;;;;;;5053709;28;20103;-66
2022/08/20 06:09:59;;;;;;;9.93;7.40;;;;;;;;;;5053559;28;20041;-66
2022/08/20 06:12:24;;;;;;;8.70;6.97;;;;;;;;;;5053847;28;20469;-66
2022/08/20 06:14:49;;;;;;;10.27;7.72;;;;;;;;;;5035898;28;20061;-66
2022/08/20 06:17:17;;;;;;;10.80;7.55;;;;;;;;;;5053779;28;20098;-66
2022/08/20 06:19:44;;;;;;;10.32;6.10;;;;;;;;;;5053938;28;20455;-66
2022/08/20 06:22:09;;;;;;;8.10;6.38;;;;;;;;;;5053432;28;20104;-67
2022/08/20 06:24:35;;;;;;;7.30;5.90;;;;;;;;;;5053453;28;20105;-66
2022/08/20 06:27:01;;;;;;;11.95;6.72;;;;;;;;;;5053948;28;20040;-66
2022/08/20 06:29:28;;;;;;;12.48;7.85;;;;;;;;;;5053834;28;20108;-67
2022/08/20 06:31:53;;;;;;;11.00;7.50;;;;;;;;;;5053547;28;20067;-67
2022/08/20 06:34:18;;;;;;;7.97;6.63;;;;;;;;;;5053572;28;20410;-66
2022/08/20 06:36:47;;;;;;;8.95;7.10;;;;;;;;;;5035845;28;20455;-67
2022/08/20 06:39:13;;;;;;;9.35;6.88;;;;;;;;;;5035399;28;20112;-66
2022/08/20 06:41:39;;;;;;;8.30;7.05;;;;;;;;;;5053188;28;20441;-66
2022/08/20 06:44:06;;;;;;;14.10;7.75;;;;;;;;;;5056881;28;20390;-66
2022/08/20 06:46:31;;;;;;;7.38;6.65;;;;;;;;;;5057487;28;20036;-66
2022/08/20 06:48:57;;;;;;;10.35;6.97;;;;;;;;;;5057697;28;20041;-67
2022/08/20 06:51:22;;;;;;;8.07;6.35;;;;;;;;;;5057433;28;20060;-66
2022/08/20 06:53:48;;;;;;;7.97;5.85;;;;;;;;;;5057192;28;20132;-67
2022/08/20 06:56:13;;;;;;;9.07;5.85;;;;;;;;;;5057631;28;20032;-66
2022/08/20 06:58:39;;;;;;;9.98;6.15;;;;;;;;;;5057022;28;20391;-66
2022/08/20 07:01:05;;;;;;;7.45;6.60;;;;;;;;;;5056989;28;20013;-66
2022/08/20 07:03:30;;;;;;;9.35;6.95;;;;;;;;;;5057223;28;20033;-66
2022/08/20 07:05:56;;;;;;;7.40;6.53;;;;;;;;;;5057162;28;20096;-67
2022/08/20 07:08:21;;;;;;;8.40;6.95;;;;;;;;;;5056794;28;20025;-66
2022/08/20 07:10:47;;;;;;;12.85;6.93;;;;;;;;;;5057038;28;20436;-67
2022/08/20 07:13:14;;;;;;;12.82;7.68;;;;;;;;;;5056910;28;20065;-66
2022/08/20 07:15:40;;;;;;;9.90;6.28;;;;;;;;;;5056604;28;20025;-67
2022/08/20 07:18:05;;;;;;;12.93;7.32;;;;;;;;;;5056853;28;20082;-66
2022/08/20 07:20:32;;;;;;;12.27;8.75;;;;;;;;;;5056606;28;20096;-67
2022/08/20 07:22:57;;;;;;;13.55;8.85;;;;;;;;;;5056782;28;20086;-66
2022/08/20 07:25:23;;;;;;;14.18;9.20;;;;;;;;;;5056759;28;20029;-66
2022/08/20 07:27:49;;;;;;;10.18;8.30;;;;;;;;;;5056913;28;20025;-67
2022/08/20 07:33:00;;;;;;;12.27;8.13;;;;;;;;;;5056559;28;20037;-67
2022/08/20 07:35:25;;;;;;;10.85;7.45;;;;;;;;;;5056548;28;20025;-67
2022/08/20 07:37:53;;;;;;;9.20;7.43;;;;;;;;;;5056229;28;20138;-67
2022/08/20 07:40:23;;;;;;;10.90;7.88;;;;;;;;;;5056548;28;20017;-67
2022/08/20 07:42:49;;;;;;;13.65;7.45;;;;;;;;;;5038566;28;20021;-67
2022/08/20 07:45:17;;;;;;;11.35;7.82;;;;;;;;;;5056356;28;20466;-66
2022/08/20 07:47:42;;;;;;;12.55;7.32;;;;;;;;;;5056332;28;20095;-66
2022/08/20 07:50:09;;;;;;;12.25;6.30;;;;;;;;;;5056339;28;20021;-68
2022/08/20 07:52:35;;;;;;;6.97;6.15;;;;;;;;;;5055782;28;20045;-66
2022/08/20 07:55:05;;;;;;;11.20;6.70;;;;;;;;;;5054806;28;20382;-66
2022/08/20 07:57:30;;;;;;;11.50;6.68;;;;;;;;;;5055943;28;20084;-67
2022/08/20 07:59:57;;;;;;;11.43;6.53;;;;;;;;;;5056116;28;20464;-66
2022/08/20 08:02:24;;;;;;;9.93;6.03;;;;;;;;;;5055818;28;20090;-66
2022/08/20 08:04:49;;;;;;;9.35;6.43;;;;;;;;;;5055751;28;20047;-67
2022/08/20 08:07:15;;;;;;;11.77;6.38;;;;;;;;;;5055734;28;20029;-68
2022/08/20 08:09:42;;;;;;;8.65;5.90;;;;;;;;;;5056215;28;20017;-67
2022/08/20 08:12:08;;;;;;;11.40;6.82;;;;;;;;;;5055894;28;20037;-66
2022/08/20 08:14:33;;;;;;;7.30;6.00;;;;;;;;;;5056061;28;20036;-67
2022/08/20 08:17:01;;;;;;;9.57;6.05;;;;;;;;;;5055438;28;20051;-67
2022/08/20 08:19:29;;;;;;;9.95;6.43;;;;;;;;;;5055725;28;20024;-67
2022/08/20 08:21:56;;;;;;;8.57;5.63;;;;;;;;;;5055941;28;20448;-67
2022/08/20 08:24:21;;;;;;;8.32;5.70;;;;;;;;;;5055713;28;20107;-67
2022/08/20 08:26:48;;;;;;;9.02;5.05;;;;;;;;;;5055342;28;20112;-66
2022/08/20 08:29:15;;;;;;;8.38;5.13;;;;;;;;;;5055351;28;20070;-67
2022/08/20 08:31:41;;;;;;;9.70;4.95;;;;;;;;;;5055552;28;20056;-67
2022/08/20 08:34:06;;;;;;;7.40;5.50;;;;;;;;;;5055184;28;20433;-67
2022/08/20 08:36:31;;;;;;;6.82;5.05;;;;;;;;;;5055024;28;20068;-66
2022/08/20 08:38:57;;;;;;;6.97;6.30;;;;;;;;;;5037295;28;20043;-67
2022/08/20 08:41:22;;;;;;;9.65;7.55;;;;;;;;;;5055608;28;20029;-67
2022/08/20 08:43:51;;;;;;;9.02;7.45;;;;;;;;;;5055324;28;20018;-67
2022/08/20 08:46:21;;;;;;;10.98;7.28;;;;;;;;;;5054936;28;20029;-67
2022/08/20 08:48:47;;;;;;;9.05;6.03;;;;;;;;;;5054999;28;20020;-67
2022/08/20 08:51:18;;;;;;;9.32;6.03;;;;;;;;;;5054875;28;20039;-67
2022/08/20 08:53:46;;;;;;;9.43;6.80;;;;;;;;;;5054965;28;20475;-67
2022/08/20 08:56:13;;;;;;;8.00;6.18;;;;;;;;;;5054725;28;20049;-67
2022/08/20 08:58:39;;;;;;;8.27;6.28;;;;;;;;;;5054749;28;20029;-67
2022/08/20 09:01:23;;;;;;;10.65;7.60;;;;;;;;;;5054824;28;20013;-66
2022/08/20 09:03:50;;;;;;;8.48;6.72;;;;;;;;;;5054872;28;20033;-66
2022/08/20 09:06:22;;;;;;;8.40;6.78;;;;;;;;;;5054361;28;20375;-66
2022/08/20 09:08:57;;;;;;;9.75;6.10;;;;;;;;;;5054816;28;20029;-66
2022/08/20 09:11:23;;;;;;;9.27;5.88;;;;;;;;;;5054690;28;20021;-66
2022/08/20 09:13:49;;;;;;;8.68;5.50;;;;;;;;;;5054377;28;20512;-66
2022/08/20 09:16:14;;;;;;;10.27;5.72;;;;;;;;;;5054714;28;20481;-66
2022/08/20 09:18:40;;;;;;;9.13;5.22;;;;;;;;;;5054418;28;20103;-67
2022/08/20 09:21:06;;;;;;;8.50;5.50;;;;;;;;;;5036600;28;20028;-66
2022/08/20 09:23:31;;;;;;;6.75;5.10;;;;;;;;;;5054583;28;20017;-66
2022/08/20 09:25:57;;;;;;;6.25;5.60;;;;;;;;;;5054184;28;20033;-67
2022/08/20 09:28:22;;;;;;;9.65;5.65;;;;;;;;;;5054507;28;20013;-66
2022/08/20 09:30:47;;;;;;;11.05;6.45;;;;;;;;;;5054087;28;20100;-67
2022/08/20 09:33:13;;;;;;;16.13;6.53;;;;;;;;;;5054683;28;20067;-67
2022/08/20 09:35:39;;;;;;;14.75;6.72;;;;;;;;;;5054574;28;20037;-66
2022/08/20 09:38:05;;;;;;;13.30;7.82;;;;;;;;;;5054083;28;20025;-66
2022/08/20 09:40:30;;;;;;;15.10;7.60;;;;;;;;;;5054006;28;20531;-67
2022/08/20 09:42:55;;;;;;;15.43;7.95;;;;;;;;;;5054026;28;20016;-66
2022/08/20 09:45:22;;;;;;;16.50;8.10;;;;;;;;;;5054193;28;20025;-66
2022/08/20 09:47:48;;;;;;;13.35;7.40;;;;;;;;;;5035928;28;20027;-66
2022/08/20 09:50:14;;;;;;;16.40;8.27;;;;;;;;;;5053846;28;20111;-66
2022/08/20 09:52:44;;;;;;;18.27;8.00;;;;;;;;;;5053619;28;20060;-66
2022/08/20 09:55:21;;;;;;;12.50;7.13;;;;;;;;;;5053903;28;20040;-66
2022/08/20 09:57:47;;;;;;;16.85;7.63;;;;;;;;;;5054250;28;20032;-66
2022/08/20 10:00:13;;;;;;;13.05;6.97;;;;;;;;;;5036228;28;20017;-67
2022/08/20 10:02:39;;;;;;;15.50;7.72;;;;;;;;;;5053977;28;20467;-66
2022/08/20 10:05:05;;;;;;;12.30;6.55;;;;;;;;;;5053686;28;20032;-66
2022/08/20 10:07:30;;;;;;;15.43;6.88;;;;;;;;;;5053925;28;20075;-66
2022/08/20 10:09:55;;;;;;;11.02;5.78;;;;;;;;;;5053605;28;20025;-66
2022/08/20 10:12:21;;;;;;;12.60;6.55;;;;;;;;;;5053543;28;20079;-66
2022/08/20 10:14:46;;;;;;;15.43;7.85;;;;;;;;;;5035629;28;20108;-66
2022/08/20 10:17:12;;;;;;;14.25;8.68;;;;;;;;;;5053545;28;20048;-66
2022/08/20 10:19:37;;;;;;;9.52;5.97;;;;;;;;;;5053773;28;20095;-67
2022/08/20 10:22:03;;;;;;;12.15;6.43;;;;;;;;;;5053553;28;20033;-66
2022/08/20 10:24:28;;;;;;;14.07;6.40;;;;;;;;;;5054012;28;20025;-66
2022/08/20 10:26:58;;;;;;;16.42;6.97;;;;;;;;;;5054115;28;20036;-66
2022/08/20 10:29:24;;;;;;;10.60;6.47;;;;;;;;;;5053898;28;20036;-66
2022/08/20 10:31:50;;;;;;;9.43;6.38;;;;;;;;;;5053232;28;20044;-66
2022/08/20 10:34:15;;;;;;;13.43;6.70;;;;;;;;;;5053573;28;20025;-66
2022/08/20 10:36:42;;;;;;;12.02;6.97;;;;;;;;;;5053856;28;20036;-66
2022/08/20 10:39:07;;;;;;;13.90;7.22;;;;;;;;;;5053267;28;20017;-66
2022/08/20 10:41:33;;;;;;;9.82;6.30;;;;;;;;;;5053186;28;20490;-68
2022/08/20 10:43:58;;;;;;;11.00;6.57;;;;;;;;;;5053249;28;20025;-67
2022/08/20 10:46:23;;;;;;;11.80;6.95;;;;;;;;;;5053466;28;20060;-66
2022/08/20 10:48:49;;;;;;;11.35;6.82;;;;;;;;;;5035414;28;20106;-66
2022/08/20 10:51:14;;;;;;;12.15;7.03;;;;;;;;;;5053295;28;20044;-66
2022/08/20 10:53:40;;;;;;;10.90;7.72;;;;;;;;;;5053673;28;20374;-66
2022/08/20 10:56:05;;;;;;;13.13;8.60;;;;;;;;;;5053480;28;20020;-66
2022/08/20 10:58:31;;;;;;;10.32;7.60;;;;;;;;;;5053074;28;20410;-66
2022/08/20 11:00:57;;;;;;;10.23;7.55;;;;;;;;;;5053658;28;20363;-66
2022/08/20 11:03:22;;;;;;;9.63;7.07;;;;;;;;;;5053080;28;20025;-67
2022/08/20 11:05:47;;;;;;;10.80;7.07;;;;;;;;;;5053024;28;20037;-66
2022/08/20 11:08:13;;;;;;;9.15;6.55;;;;;;;;;;5053054;28;20039;-67
2022/08/20 11:10:39;;;;;;;8.35;5.13;;;;;;;;;;5053056;28;20390;-67
2022/08/20 11:13:05;;;;;;;13.35;6.03;;;;;;;;;;5053274;28;20032;-66
2022/08/20 11:15:35;;;;;;;10.20;6.57;;;;;;;;;;5053027;28;20028;-66
2022/08/20 11:18:01;;;;;;;14.23;7.18;;;;;;;;;;5053164;28;20028;-66
2022/08/20 11:20:26;;;;;;;12.65;7.47;;;;;;;;;;5052938;28;20367;-66
2022/08/20 11:22:52;;;;;;;17.02;7.82;;;;;;;;;;5035077;28;20029;-66
2022/08/20 11:25:18;;;;;;;12.43;8.05;;;;;;;;;;5053372;28;20032;-66
2022/08/20 11:27:46;;;;;;;12.77;7.93;;;;;;;;;;5053362;28;20021;-66
2022/08/20 11:30:14;;;;;;;15.73;8.82;;;;;;;;;;5054779;28;20028;-66
2022/08/20 11:32:39;;;;;;;13.70;8.15;;;;;;;;;;5056266;28;20029;-66
2022/08/20 11:35:05;;;;;;;11.30;7.20;;;;;;;;;;5056273;28;20021;-66
2022/08/20 11:37:31;;;;;;;10.38;7.22;;;;;;;;;;5056306;28;20025;-66
2022/08/20 11:39:56;;;;;;;15.02;7.38;;;;;;;;;;5056503;28;20017;-67
2022/08/20 11:42:21;;;;;;;17.55;8.32;;;;;;;;;;5056203;28;20027;-66
2022/08/20 11:44:47;;;;;;;12.07;7.80;;;;;;;;;;5056159;28;20029;-66
2022/08/20 11:47:23;;;;;;;9.85;7.47;;;;;;;;;;5056371;28;20068;-66
2022/08/20 11:49:55;;;;;;;11.52;7.47;;;;;;;;;;5038169;28;20128;-66
2022/08/20 11:52:21;;;;;;;9.23;6.25;;;;;;;;;;5056011;28;20049;-66
2022/08/20 11:54:46;;;;;;;11.70;7.57;;;;;;;;;;5055978;28;20043;-66
2022/08/20 11:57:11;;;;;;;16.00;8.40;;;;;;;;;;5055687;28;20364;-66
2022/08/20 11:59:37;;;;;;;15.48;8.25;;;;;;;;;;5054834;28;20383;-66
2022/08/20 12:02:02;;;;;;;11.40;7.10;;;;;;;;;;5054781;28;20032;-67
2022/08/20 12:04:28;;;;;;;10.40;7.10;;;;;;;;;;5054825;28;20093;-66
2022/08/20 12:06:53;;;;;;;10.93;7.70;;;;;;;;;;5054693;28;20037;-66
2022/08/20 12:09:18;;;;;;;10.88;6.22;;;;;;;;;;5054657;28;20029;-67
2022/08/20 12:11:44;;;;;;;13.70;7.43;;;;;;;;;;5036866;28;20087;-66
2022/08/20 12:14:10;;;;;;;11.55;7.38;;;;;;;;;;5054525;28;20455;-66
2022/08/20 12:16:35;;;;;;;12.32;6.75;;;;;;;;;;5036729;28;20108;-66
2022/08/20 12:19:01;;;;;;;14.00;7.72;;;;;;;;;;5036573;28;20013;-66
2022/08/20 12:21:26;;;;;;;16.55;8.20;;;;;;;;;;5054460;28;20044;-66
2022/08/20 12:23:51;;;;;;;12.15;7.75;;;;;;;;;;5054408;28;20067;-66
2022/08/20 12:26:17;;;;;;;10.63;6.80;;;;;;;;;;5054624;28;20056;-66
2022/08/20 12:28:42;;;;;;;13.40;7.32;;;;;;;;;;5054277;28;20032;-66
2022/08/20 12:31:09;;;;;;;12.75;6.93;;;;;;;;;;5055113;28;20061;-66
2022/08/20 12:33:34;;;;;;;13.00;7.43;;;;;;;;;;5054784;28;20041;-66
2022/08/20 12:36:00;;;;;;;10.98;6.53;;;;;;;;;;5054032;28;20119;-66
2022/08/20 12:38:25;;;;;;;9.45;6.32;;;;;;;;;;5053967;28;20033;-68
2022/08/20 12:40:50;;;;;;;9.05;6.05;;;;;;;;;;5054575;28;20025;-67
2022/08/20 12:43:16;;;;;;;12.77;5.93;;;;;;;;;;5055087;28;20360;-66
2022/08/20 12:45:41;;;;;;;11.25;5.85;;;;;;;;;;5054956;28;20033;-66
2022/08/20 12:48:08;;;;;;;8.73;5.45;;;;;;;;;;5036914;28;20040;-67
2022/08/20 12:50:35;;;;;;;9.38;6.28;;;;;;;;;;5037596;28;20029;-67
2022/08/20 12:53:01;;;;;;;6.82;5.63;;;;;;;;;;5054730;28;20051;-68
2022/08/20 12:55:27;;;;;;;8.00;5.43;;;;;;;;;;5055094;28;20136;-67
2022/08/20 12:57:55;;;;;;;8.73;5.22;;;;;;;;;;5054832;28;20499;-67
2022/08/20 13:00:42;;;;;;;11.10;5.72;;;;;;;;;;5054754;28;20032;-67
2022/08/20 13:03:08;;;;;;;10.25;5.40;;;;;;;;;;5055023;28;20483;-67
2022/08/20 13:05:34;;;;;;;7.43;5.43;;;;;;;;;;5036874;28;20060;-67
2022/08/20 13:07:59;;;;;;;8.95;5.90;;;;;;;;;;5054539;28;20033;-67
2022/08/20 13:10:27;;;;;;;9.48;5.30;;;;;;;;;;5054730;28;20025;-68
2022/08/20 13:12:54;;;;;;;8.18;5.38;;;;;;;;;;5054664;28;20120;-67
2022/08/20 13:15:20;;;;;;;8.73;5.35;;;;;;;;;;5054346;28;20367;-68
2022/08/20 13:17:49;;;;;;;8.43;5.85;;;;;;;;;;5054403;28;20089;-67
2022/08/20 13:20:15;;;;;;;7.53;5.93;;;;;;;;;;5054574;28;20017;-67
2022/08/20 13:22:41;;;;;;;8.43;5.45;;;;;;;;;;5036442;28;20025;-67
2022/08/20 13:25:06;;;;;;;8.52;4.97;;;;;;;;;;5054327;28;20028;-67
2022/08/20 13:27:32;;;;;;;11.43;5.32;;;;;;;;;;5054447;28;20056;-67
2022/08/20 13:29:58;;;;;;;7.38;5.10;;;;;;;;;;5054248;28;20473;-67
2022/08/20 13:32:23;;;;;;;7.35;4.60;;;;;;;;;;5054169;28;20053;-67
2022/08/20 13:34:49;;;;;;;6.35;4.95;;;;;;;;;;5054334;28;20360;-67
2022/08/20 13:37:16;;;;;;;9.05;5.10;;;;;;;;;;5036238;28;20424;-67
2022/08/20 13:39:41;;;;;;;6.57;4.53;;;;;;;;;;5054345;28;20024;-67
2022/08/20 13:42:08;;;;;;;4.82;4.28;;;;;;;;;;5054139;28;20025;-67
2022/08/20 13:44:33;;;;;;;5.88;4.72;;;;;;;;;;5036565;28;20021;-67
2022/08/20 13:46:59;;;;;;;10.23;5.22;;;;;;;;;;5053876;28;20036;-67
2022/08/20 13:49:24;;;;;;;9.00;5.45;;;;;;;;;;5054181;28;20021;-67
2022/08/20 13:51:50;;;;;;;7.93;5.15;;;;;;;;;;5052941;28;20049;-67
2022/08/20 13:54:16;;;;;;;9.55;5.25;;;;;;;;;;5054000;28;20029;-67
2022/08/20 13:56:41;;;;;;;8.20;4.90;;;;;;;;;;5054065;28;20017;-67
2022/08/20 13:59:06;;;;;;;6.63;4.70;;;;;;;;;;5053766;28;20028;-67
2022/08/20 14:01:32;;;;;;;7.95;5.00;;;;;;;;;;5053705;28;20021;-67
2022/08/20 14:03:57;;;;;;;9.07;4.60;;;;;;;;;;5053931;28;20028;-67
2022/08/20 14:06:22;;;;;;;9.75;4.97;;;;;;;;;;5053936;28;20124;-67
2022/08/20 14:08:48;;;;;;;9.02;4.90;;;;;;;;;;5053897;28;20059;-67
2022/08/20 14:11:13;;;;;;;8.57;4.93;;;;;;;;;;5052802;28;20025;-67
2022/08/20 14:13:39;;;;;;;6.90;4.53;;;;;;;;;;5052445;28;20035;-67
2022/08/20 14:16:04;;;;;;;9.40;5.25;;;;;;;;;;5052559;28;20467;-67
2022/08/20 14:18:30;;;;;;;6.57;4.47;;;;;;;;;;5050426;28;20060;-67
2022/08/20 14:20:55;;;;;;;6.57;4.05;;;;;;;;;;5034316;28;20055;-67
2022/08/20 14:23:21;;;;;;;7.30;4.53;;;;;;;;;;5052366;28;20024;-67
2022/08/20 14:25:48;;;;;;;8.98;5.03;;;;;;;;;;5051905;28;20024;-67
2022/08/20 14:28:18;;;;;;;10.73;5.43;;;;;;;;;;5052159;28;20060;-67
2022/08/20 14:30:44;;;;;;;7.97;5.18;;;;;;;;;;5051978;28;20072;-67
2022/08/20 14:33:09;;;;;;;6.45;4.80;;;;;;;;;;5052439;28;20033;-67
2022/08/20 14:35:34;;;;;;;10.85;5.68;;;;;;;;;;5051742;28;20426;-67
2022/08/20 14:38:00;;;;;;;10.50;5.93;;;;;;;;;;5052060;28;20431;-67
2022/08/20 14:40:26;;;;;;;11.95;6.60;;;;;;;;;;5042482;28;20021;-67
2022/08/20 14:42:52;;;;;;;11.73;6.70;;;;;;;;;;5048539;28;20028;-67